Hubbell Trading Post Nationa, Arizona
Current Conditions -  °F | °C
As of 6:53 AM on Thursday 27 Nov 2014 (Local Time) from KGUP Reporting Station
Clear Clear  
Wind Chill: 15°   Ceiling: Unl
Heat Index: 15°   Visibility: 10mi
Dew Point:   Wind: 0mph
Humidity: 74%   Direction: NA
Pressure: 30.51"   Gusts: NA
Location:  35.6053°N, 109.458°W
Report Text: KGUP 271353Z AUTO 00000KT 10SM CLR M09/M13 A3051 RMK AO2 SLP365 T10941133
Loading
Personal Weather Stations






























Interactive Weather Map New forecast layout! Learn more

10-Day Weather Forecast

Advertisements
Track Severe Weather on mobile